sensor_id;sensor_type;location;lat;lon;timestamp;P1;durP1;ratioP1;P2;durP2;ratioP2
60919;SDS011;59039;52.108;19.942;2023-11-21T00:00:14;106.70;;;34.20;;
60919;SDS011;59039;52.108;19.942;2023-11-21T00:02:40;92.30;;;31.90;;
60919;SDS011;59039;52.108;19.942;2023-11-21T00:05:07;74.30;;;27.70;;
60919;SDS011;59039;52.108;19.942;2023-11-21T00:07:33;102.50;;;32.20;;
60919;SDS011;59039;52.108;19.942;2023-11-21T00:09:58;107.70;;;31.50;;
60919;SDS011;59039;52.108;19.942;2023-11-21T00:12:24;78.30;;;24.90;;
60919;SDS011;59039;52.108;19.942;2023-11-21T00:14:49;77.20;;;25.30;;
60919;SDS011;59039;52.108;19.942;2023-11-21T00:17:14;89.80;;;26.70;;
60919;SDS011;59039;52.108;19.942;2023-11-21T00:19:39;87.70;;;27.00;;
60919;SDS011;59039;52.108;19.942;2023-11-21T00:22:04;95.30;;;29.30;;
60919;SDS011;59039;52.108;19.942;2023-11-21T00:24:30;89.40;;;28.40;;
60919;SDS011;59039;52.108;19.942;2023-11-21T00:26:55;79.10;;;25.80;;
60919;SDS011;59039;52.108;19.942;2023-11-21T00:29:20;84.90;;;28.90;;
60919;SDS011;59039;52.108;19.942;2023-11-21T00:31:45;73.70;;;25.30;;
60919;SDS011;59039;52.108;19.942;2023-11-21T00:34:11;95.80;;;30.90;;
60919;SDS011;59039;52.108;19.942;2023-11-21T00:36:36;81.20;;;26.00;;
60919;SDS011;59039;52.108;19.942;2023-11-21T00:39:02;75.50;;;25.90;;
60919;SDS011;59039;52.108;19.942;2023-11-21T00:41:27;56.90;;;19.00;;
60919;SDS011;59039;52.108;19.942;2023-11-21T00:43:53;68.70;;;25.10;;
60919;SDS011;59039;52.108;19.942;2023-11-21T00:46:18;80.80;;;27.10;;
60919;SDS011;59039;52.108;19.942;2023-11-21T00:48:43;65.10;;;24.50;;
60919;SDS011;59039;52.108;19.942;2023-11-21T00:51:09;91.60;;;30.50;;
60919;SDS011;59039;52.108;19.942;2023-11-21T00:53:34;90.10;;;27.40;;
60919;SDS011;59039;52.108;19.942;2023-11-21T00:55:59;77.00;;;28.80;;
60919;SDS011;59039;52.108;19.942;2023-11-21T00:58:24;75.10;;;26.70;;
60919;SDS011;59039;52.108;19.942;2023-11-21T01:00:50;91.20;;;28.70;;
60919;SDS011;59039;52.108;19.942;2023-11-21T01:03:15;72.50;;;24.60;;
60919;SDS011;59039;52.108;19.942;2023-11-21T01:05:40;91.10;;;28.70;;
60919;SDS011;59039;52.108;19.942;2023-11-21T01:08:06;76.80;;;27.20;;
60919;SDS011;59039;52.108;19.942;2023-11-21T01:10:31;94.30;;;30.10;;
60919;SDS011;59039;52.108;19.942;2023-11-21T01:12:56;89.20;;;27.90;;
60919;SDS011;59039;52.108;19.942;2023-11-21T01:15:21;81.30;;;27.40;;
60919;SDS011;59039;52.108;19.942;2023-11-21T01:17:47;67.80;;;23.60;;
60919;SDS011;59039;52.108;19.942;2023-11-21T01:20:12;84.20;;;24.40;;
60919;SDS011;59039;52.108;19.942;2023-11-21T01:22:37;78.50;;;27.20;;
60919;SDS011;59039;52.108;19.942;2023-11-21T01:25:03;73.60;;;25.20;;
60919;SDS011;59039;52.108;19.942;2023-11-21T01:27:29;68.50;;;25.50;;
60919;SDS011;59039;52.108;19.942;2023-11-21T01:29:54;60.80;;;23.00;;
60919;SDS011;59039;52.108;19.942;2023-11-21T01:32:19;67.20;;;24.90;;
60919;SDS011;59039;52.108;19.942;2023-11-21T01:34:44;69.00;;;24.20;;
60919;SDS011;59039;52.108;19.942;2023-11-21T01:37:09;73.00;;;27.90;;
60919;SDS011;59039;52.108;19.942;2023-11-21T01:39:35;79.30;;;26.70;;
60919;SDS011;59039;52.108;19.942;2023-11-21T01:42:00;69.40;;;24.00;;
60919;SDS011;59039;52.108;19.942;2023-11-21T01:44:25;67.80;;;23.20;;
60919;SDS011;59039;52.108;19.942;2023-11-21T01:46:50;52.80;;;19.40;;
60919;SDS011;59039;52.108;19.942;2023-11-21T01:49:16;62.10;;;21.80;;
60919;SDS011;59039;52.108;19.942;2023-11-21T01:51:42;76.40;;;24.20;;
60919;SDS011;59039;52.108;19.942;2023-11-21T01:54:11;73.30;;;25.40;;
60919;SDS011;59039;52.108;19.942;2023-11-21T01:56:36;82.70;;;27.30;;
60919;SDS011;59039;52.108;19.942;2023-11-21T01:59:02;67.30;;;21.50;;
60919;SDS011;59039;52.108;19.942;2023-11-21T02:01:27;60.70;;;21.80;;
60919;SDS011;59039;52.108;19.942;2023-11-21T02:03:53;92.30;;;29.90;;
60919;SDS011;59039;52.108;19.942;2023-11-21T02:06:18;78.30;;;25.30;;
60919;SDS011;59039;52.108;19.942;2023-11-21T02:08:43;70.00;;;24.30;;
60919;SDS011;59039;52.108;19.942;2023-11-21T02:11:09;79.10;;;25.00;;
60919;SDS011;59039;52.108;19.942;2023-11-21T02:13:34;81.10;;;24.40;;
60919;SDS011;59039;52.108;19.942;2023-11-21T02:15:59;77.90;;;25.00;;
60919;SDS011;59039;52.108;19.942;2023-11-21T02:18:24;58.40;;;21.30;;
60919;SDS011;59039;52.108;19.942;2023-11-21T02:20:49;86.90;;;27.30;;
60919;SDS011;59039;52.108;19.942;2023-11-21T02:23:15;75.10;;;25.70;;
60919;SDS011;59039;52.108;19.942;2023-11-21T02:25:40;76.10;;;25.50;;
60919;SDS011;59039;52.108;19.942;2023-11-21T02:28:05;83.30;;;26.30;;
60919;SDS011;59039;52.108;19.942;2023-11-21T02:30:30;71.90;;;24.70;;
60919;SDS011;59039;52.108;19.942;2023-11-21T02:32:56;85.20;;;27.40;;
60919;SDS011;59039;52.108;19.942;2023-11-21T02:35:21;64.00;;;23.20;;
60919;SDS011;59039;52.108;19.942;2023-11-21T02:37:47;69.70;;;21.20;;
60919;SDS011;59039;52.108;19.942;2023-11-21T02:40:12;70.70;;;22.30;;
60919;SDS011;59039;52.108;19.942;2023-11-21T02:42:41;64.40;;;23.50;;
60919;SDS011;59039;52.108;19.942;2023-11-21T02:45:06;68.50;;;24.20;;
60919;SDS011;59039;52.108;19.942;2023-11-21T02:47:32;58.50;;;20.10;;
60919;SDS011;59039;52.108;19.942;2023-11-21T02:49:57;69.80;;;24.30;;
60919;SDS011;59039;52.108;19.942;2023-11-21T02:52:23;64.00;;;22.70;;
60919;SDS011;59039;52.108;19.942;2023-11-21T02:54:48;63.10;;;22.20;;
60919;SDS011;59039;52.108;19.942;2023-11-21T02:57:13;68.70;;;23.10;;
60919;SDS011;59039;52.108;19.942;2023-11-21T02:59:38;63.00;;;21.10;;
60919;SDS011;59039;52.108;19.942;2023-11-21T03:02:03;62.70;;;22.10;;
60919;SDS011;59039;52.108;19.942;2023-11-21T03:04:29;60.00;;;21.90;;
60919;SDS011;59039;52.108;19.942;2023-11-21T03:06:54;52.10;;;20.00;;
60919;SDS011;59039;52.108;19.942;2023-11-21T03:09:19;63.40;;;21.70;;
60919;SDS011;59039;52.108;19.942;2023-11-21T03:11:44;56.60;;;21.10;;
60919;SDS011;59039;52.108;19.942;2023-11-21T03:14:09;60.10;;;20.60;;
60919;SDS011;59039;52.108;19.942;2023-11-21T03:16:35;65.70;;;22.10;;
60919;SDS011;59039;52.108;19.942;2023-11-21T03:19:00;47.50;;;19.30;;
60919;SDS011;59039;52.108;19.942;2023-11-21T03:21:25;49.50;;;18.80;;
60919;SDS011;59039;52.108;19.942;2023-11-21T03:23:50;48.40;;;18.60;;
60919;SDS011;59039;52.108;19.942;2023-11-21T03:26:15;50.10;;;19.10;;
60919;SDS011;59039;52.108;19.942;2023-11-21T03:28:41;65.20;;;21.00;;
60919;SDS011;59039;52.108;19.942;2023-11-21T03:31:06;57.30;;;20.40;;
60919;SDS011;59039;52.108;19.942;2023-11-21T03:33:31;46.00;;;17.70;;
60919;SDS011;59039;52.108;19.942;2023-11-21T03:35:57;44.20;;;17.10;;
60919;SDS011;59039;52.108;19.942;2023-11-21T03:38:23;46.30;;;17.40;;
60919;SDS011;59039;52.108;19.942;2023-11-21T03:40:48;51.30;;;19.50;;
60919;SDS011;59039;52.108;19.942;2023-11-21T03:43:13;51.50;;;21.10;;
60919;SDS011;59039;52.108;19.942;2023-11-21T03:45:38;44.80;;;16.80;;
60919;SDS011;59039;52.108;19.942;2023-11-21T03:48:04;48.80;;;18.70;;
60919;SDS011;59039;52.108;19.942;2023-11-21T03:50:29;53.40;;;20.00;;
60919;SDS011;59039;52.108;19.942;2023-11-21T03:52:54;46.80;;;17.50;;
60919;SDS011;59039;52.108;19.942;2023-11-21T03:55:20;42.30;;;17.80;;
60919;SDS011;59039;52.108;19.942;2023-11-21T03:57:45;41.80;;;15.70;;
60919;SDS011;59039;52.108;19.942;2023-11-21T04:00:10;36.60;;;16.00;;
60919;SDS011;59039;52.108;19.942;2023-11-21T04:02:36;38.70;;;16.40;;
60919;SDS011;59039;52.108;19.942;2023-11-21T04:05:01;31.50;;;11.80;;
60919;SDS011;59039;52.108;19.942;2023-11-21T04:07:26;31.50;;;13.50;;
60919;SDS011;59039;52.108;19.942;2023-11-21T04:09:52;33.50;;;13.60;;
60919;SDS011;59039;52.108;19.942;2023-11-21T04:12:17;34.80;;;14.00;;
60919;SDS011;59039;52.108;19.942;2023-11-21T04:14:42;33.50;;;12.90;;
60919;SDS011;59039;52.108;19.942;2023-11-21T04:17:07;31.80;;;13.70;;
60919;SDS011;59039;52.108;19.942;2023-11-21T04:19:32;35.60;;;15.70;;
60919;SDS011;59039;52.108;19.942;2023-11-21T04:21:58;35.00;;;13.40;;
60919;SDS011;59039;52.108;19.942;2023-11-21T04:24:23;31.50;;;13.80;;
60919;SDS011;59039;52.108;19.942;2023-11-21T04:26:48;31.90;;;14.80;;
60919;SDS011;59039;52.108;19.942;2023-11-21T04:29:13;37.10;;;15.70;;
60919;SDS011;59039;52.108;19.942;2023-11-21T04:31:38;36.80;;;15.60;;
60919;SDS011;59039;52.108;19.942;2023-11-21T04:34:04;36.40;;;16.80;;
60919;SDS011;59039;52.108;19.942;2023-11-21T04:36:29;37.10;;;15.60;;
60919;SDS011;59039;52.108;19.942;2023-11-21T04:38:55;39.40;;;16.60;;
60919;SDS011;59039;52.108;19.942;2023-11-21T04:41:20;37.60;;;16.10;;
60919;SDS011;59039;52.108;19.942;2023-11-21T04:43:45;39.80;;;17.60;;
60919;SDS011;59039;52.108;19.942;2023-11-21T04:46:10;41.30;;;15.80;;
60919;SDS011;59039;52.108;19.942;2023-11-21T04:48:36;44.20;;;17.40;;
60919;SDS011;59039;52.108;19.942;2023-11-21T04:51:01;42.60;;;16.30;;
60919;SDS011;59039;52.108;19.942;2023-11-21T04:53:26;40.20;;;15.30;;
60919;SDS011;59039;52.108;19.942;2023-11-21T04:55:51;41.10;;;17.50;;
60919;SDS011;59039;52.108;19.942;2023-11-21T04:58:17;36.60;;;16.00;;
60919;SDS011;59039;52.108;19.942;2023-11-21T05:00:42;42.50;;;17.70;;
60919;SDS011;59039;52.108;19.942;2023-11-21T05:03:07;40.90;;;16.50;;
60919;SDS011;59039;52.108;19.942;2023-11-21T05:05:34;40.70;;;16.70;;
60919;SDS011;59039;52.108;19.942;2023-11-21T05:07:59;39.00;;;16.90;;
60919;SDS011;59039;52.108;19.942;2023-11-21T05:10:24;45.90;;;18.10;;
60919;SDS011;59039;52.108;19.942;2023-11-21T05:12:50;34.50;;;15.90;;
60919;SDS011;59039;52.108;19.942;2023-11-21T05:15:15;32.00;;;16.10;;
60919;SDS011;59039;52.108;19.942;2023-11-21T05:17:41;32.80;;;15.30;;
60919;SDS011;59039;52.108;19.942;2023-11-21T05:20:07;24.60;;;11.30;;
60919;SDS011;59039;52.108;19.942;2023-11-21T05:22:32;34.30;;;14.30;;
60919;SDS011;59039;52.108;19.942;2023-11-21T05:24:58;36.20;;;16.20;;
60919;SDS011;59039;52.108;19.942;2023-11-21T05:27:23;29.90;;;13.60;;
60919;SDS011;59039;52.108;19.942;2023-11-21T05:29:48;37.80;;;16.60;;
60919;SDS011;59039;52.108;19.942;2023-11-21T05:32:13;34.80;;;15.60;;
60919;SDS011;59039;52.108;19.942;2023-11-21T05:34:38;31.80;;;14.30;;
60919;SDS011;59039;52.108;19.942;2023-11-21T05:37:04;28.40;;;12.80;;
60919;SDS011;59039;52.108;19.942;2023-11-21T05:39:29;30.00;;;13.70;;
60919;SDS011;59039;52.108;19.942;2023-11-21T05:41:54;30.80;;;12.80;;
60919;SDS011;59039;52.108;19.942;2023-11-21T05:44:19;26.40;;;12.40;;
60919;SDS011;59039;52.108;19.942;2023-11-21T05:46:45;32.40;;;13.60;;
60919;SDS011;59039;52.108;19.942;2023-11-21T05:49:10;27.10;;;12.90;;
60919;SDS011;59039;52.108;19.942;2023-11-21T05:51:36;27.80;;;13.50;;
60919;SDS011;59039;52.108;19.942;2023-11-21T05:54:02;28.30;;;12.10;;
60919;SDS011;59039;52.108;19.942;2023-11-21T05:56:27;28.30;;;13.50;;
60919;SDS011;59039;52.108;19.942;2023-11-21T05:58:52;31.20;;;13.30;;
60919;SDS011;59039;52.108;19.942;2023-11-21T06:01:17;30.50;;;12.80;;
60919;SDS011;59039;52.108;19.942;2023-11-21T06:03:42;28.60;;;12.60;;
60919;SDS011;59039;52.108;19.942;2023-11-21T06:06:08;24.40;;;11.30;;
60919;SDS011;59039;52.108;19.942;2023-11-21T06:08:33;21.90;;;10.80;;
60919;SDS011;59039;52.108;19.942;2023-11-21T06:10:58;30.10;;;12.60;;
60919;SDS011;59039;52.108;19.942;2023-11-21T06:13:23;26.80;;;12.80;;
60919;SDS011;59039;52.108;19.942;2023-11-21T06:15:49;23.00;;;12.40;;
60919;SDS011;59039;52.108;19.942;2023-11-21T06:18:14;24.00;;;11.80;;
60919;SDS011;59039;52.108;19.942;2023-11-21T06:20:39;26.30;;;12.40;;
60919;SDS011;59039;52.108;19.942;2023-11-21T06:23:04;22.70;;;11.60;;
60919;SDS011;59039;52.108;19.942;2023-11-21T06:25:29;22.00;;;11.20;;
60919;SDS011;59039;52.108;19.942;2023-11-21T06:27:55;21.70;;;10.00;;
60919;SDS011;59039;52.108;19.942;2023-11-21T06:30:20;27.50;;;12.60;;
60919;SDS011;59039;52.108;19.942;2023-11-21T06:32:45;27.60;;;14.30;;
60919;SDS011;59039;52.108;19.942;2023-11-21T06:35:11;28.00;;;14.10;;
60919;SDS011;59039;52.108;19.942;2023-11-21T06:37:37;28.70;;;13.70;;
60919;SDS011;59039;52.108;19.942;2023-11-21T06:40:02;33.00;;;14.90;;
60919;SDS011;59039;52.108;19.942;2023-11-21T06:42:28;31.10;;;14.30;;
60919;SDS011;59039;52.108;19.942;2023-11-21T06:44:53;23.30;;;12.00;;
60919;SDS011;59039;52.108;19.942;2023-11-21T06:47:18;32.50;;;12.70;;
60919;SDS011;59039;52.108;19.942;2023-11-21T06:49:44;30.50;;;14.20;;
60919;SDS011;59039;52.108;19.942;2023-11-21T06:52:09;29.70;;;13.90;;
60919;SDS011;59039;52.108;19.942;2023-11-21T06:54:34;28.50;;;14.40;;
60919;SDS011;59039;52.108;19.942;2023-11-21T06:57:00;30.90;;;15.20;;
60919;SDS011;59039;52.108;19.942;2023-11-21T06:59:26;34.60;;;14.50;;
60919;SDS011;59039;52.108;19.942;2023-11-21T07:01:53;30.50;;;13.50;;
60919;SDS011;59039;52.108;19.942;2023-11-21T07:04:18;33.40;;;14.70;;
60919;SDS011;59039;52.108;19.942;2023-11-21T07:06:44;30.60;;;14.60;;
60919;SDS011;59039;52.108;19.942;2023-11-21T07:09:09;38.30;;;15.50;;
60919;SDS011;59039;52.108;19.942;2023-11-21T07:11:34;26.70;;;13.30;;
60919;SDS011;59039;52.108;19.942;2023-11-21T07:14:00;28.90;;;13.90;;
60919;SDS011;59039;52.108;19.942;2023-11-21T07:16:25;33.60;;;13.30;;
60919;SDS011;59039;52.108;19.942;2023-11-21T07:18:50;29.60;;;12.20;;
60919;SDS011;59039;52.108;19.942;2023-11-21T07:21:16;17.20;;;8.40;;
60919;SDS011;59039;52.108;19.942;2023-11-21T07:23:41;22.10;;;10.90;;
60919;SDS011;59039;52.108;19.942;2023-11-21T07:26:06;24.90;;;11.20;;
60919;SDS011;59039;52.108;19.942;2023-11-21T07:28:31;25.40;;;12.00;;
60919;SDS011;59039;52.108;19.942;2023-11-21T07:30:57;21.70;;;10.20;;
60919;SDS011;59039;52.108;19.942;2023-11-21T07:33:22;26.10;;;12.40;;
60919;SDS011;59039;52.108;19.942;2023-11-21T07:35:47;29.10;;;13.80;;
60919;SDS011;59039;52.108;19.942;2023-11-21T07:38:12;30.20;;;14.10;;
60919;SDS011;59039;52.108;19.942;2023-11-21T07:40:37;28.40;;;13.50;;
60919;SDS011;59039;52.108;19.942;2023-11-21T07:43:03;29.10;;;12.80;;
60919;SDS011;59039;52.108;19.942;2023-11-21T07:45:28;26.20;;;12.20;;
60919;SDS011;59039;52.108;19.942;2023-11-21T07:47:53;23.60;;;12.30;;
60919;SDS011;59039;52.108;19.942;2023-11-21T07:50:19;21.10;;;9.90;;
60919;SDS011;59039;52.108;19.942;2023-11-21T07:52:44;28.60;;;14.80;;
60919;SDS011;59039;52.108;19.942;2023-11-21T07:55:09;27.40;;;13.10;;
60919;SDS011;59039;52.108;19.942;2023-11-21T07:57:34;28.10;;;13.70;;
60919;SDS011;59039;52.108;19.942;2023-11-21T08:00:00;23.60;;;12.90;;
60919;SDS011;59039;52.108;19.942;2023-11-21T08:02:25;36.40;;;18.80;;
60919;SDS011;59039;52.108;19.942;2023-11-21T08:04:50;36.40;;;17.10;;
60919;SDS011;59039;52.108;19.942;2023-11-21T08:07:16;38.20;;;17.90;;
60919;SDS011;59039;52.108;19.942;2023-11-21T08:09:42;29.30;;;16.80;;
60919;SDS011;59039;52.108;19.942;2023-11-21T08:12:07;28.10;;;15.40;;
60919;SDS011;59039;52.108;19.942;2023-11-21T08:14:33;28.30;;;16.20;;
60919;SDS011;59039;52.108;19.942;2023-11-21T08:16:58;32.30;;;15.60;;
60919;SDS011;59039;52.108;19.942;2023-11-21T08:19:23;26.80;;;12.40;;
60919;SDS011;59039;52.108;19.942;2023-11-21T08:21:49;29.90;;;13.50;;
60919;SDS011;59039;52.108;19.942;2023-11-21T08:24:14;24.60;;;13.40;;
60919;SDS011;59039;52.108;19.942;2023-11-21T08:26:39;34.50;;;14.90;;
60919;SDS011;59039;52.108;19.942;2023-11-21T08:29:04;42.00;;;17.30;;
60919;SDS011;59039;52.108;19.942;2023-11-21T08:31:29;31.00;;;14.00;;
60919;SDS011;59039;52.108;19.942;2023-11-21T08:33:55;24.30;;;13.10;;
60919;SDS011;59039;52.108;19.942;2023-11-21T08:36:20;27.20;;;12.40;;
60919;SDS011;59039;52.108;19.942;2023-11-21T08:38:49;24.30;;;12.10;;
60919;SDS011;59039;52.108;19.942;2023-11-21T08:41:14;26.20;;;11.40;;
60919;SDS011;59039;52.108;19.942;2023-11-21T08:43:39;23.00;;;11.10;;
60919;SDS011;59039;52.108;19.942;2023-11-21T08:46:07;26.60;;;11.90;;
60919;SDS011;59039;52.108;19.942;2023-11-21T08:48:33;23.00;;;12.10;;
60919;SDS011;59039;52.108;19.942;2023-11-21T08:50:58;24.40;;;12.00;;
60919;SDS011;59039;52.108;19.942;2023-11-21T08:53:23;28.10;;;13.30;;
60919;SDS011;59039;52.108;19.942;2023-11-21T08:55:48;28.60;;;13.40;;
60919;SDS011;59039;52.108;19.942;2023-11-21T08:58:13;27.60;;;13.40;;
60919;SDS011;59039;52.108;19.942;2023-11-21T09:00:39;29.90;;;14.40;;
60919;SDS011;59039;52.108;19.942;2023-11-21T09:03:05;27.00;;;14.80;;
60919;SDS011;59039;52.108;19.942;2023-11-21T09:05:30;39.10;;;18.40;;
60919;SDS011;59039;52.108;19.942;2023-11-21T09:07:55;27.90;;;14.20;;
60919;SDS011;59039;52.108;19.942;2023-11-21T09:10:20;30.70;;;16.40;;
60919;SDS011;59039;52.108;19.942;2023-11-21T09:12:46;26.20;;;14.00;;
60919;SDS011;59039;52.108;19.942;2023-11-21T09:15:11;26.10;;;14.00;;
60919;SDS011;59039;52.108;19.942;2023-11-21T09:17:36;25.70;;;13.60;;
60919;SDS011;59039;52.108;19.942;2023-11-21T09:20:02;31.50;;;15.40;;
60919;SDS011;59039;52.108;19.942;2023-11-21T09:22:28;28.70;;;14.00;;
60919;SDS011;59039;52.108;19.942;2023-11-21T09:24:53;25.20;;;12.00;;
60919;SDS011;59039;52.108;19.942;2023-11-21T09:27:18;34.50;;;14.40;;
60919;SDS011;59039;52.108;19.942;2023-11-21T09:29:44;32.70;;;16.20;;
60919;SDS011;59039;52.108;19.942;2023-11-21T09:32:09;27.90;;;13.40;;
60919;SDS011;59039;52.108;19.942;2023-11-21T09:34:35;34.30;;;15.70;;
60919;SDS011;59039;52.108;19.942;2023-11-21T09:37:00;34.00;;;14.80;;
60919;SDS011;59039;52.108;19.942;2023-11-21T09:39:25;35.30;;;15.10;;
60919;SDS011;59039;52.108;19.942;2023-11-21T09:41:51;34.00;;;16.90;;
60919;SDS011;59039;52.108;19.942;2023-11-21T09:44:18;33.60;;;15.70;;
60919;SDS011;59039;52.108;19.942;2023-11-21T09:46:44;29.00;;;13.60;;
60919;SDS011;59039;52.108;19.942;2023-11-21T09:49:13;30.50;;;14.90;;
60919;SDS011;59039;52.108;19.942;2023-11-21T09:51:39;28.60;;;13.40;;
60919;SDS011;59039;52.108;19.942;2023-11-21T09:54:07;25.50;;;12.90;;
60919;SDS011;59039;52.108;19.942;2023-11-21T09:56:35;31.10;;;13.20;;
60919;SDS011;59039;52.108;19.942;2023-11-21T09:59:01;37.80;;;15.80;;
60919;SDS011;59039;52.108;19.942;2023-11-21T10:01:28;30.30;;;14.80;;
60919;SDS011;59039;52.108;19.942;2023-11-21T10:03:53;24.60;;;12.90;;
60919;SDS011;59039;52.108;19.942;2023-11-21T10:06:19;25.80;;;11.90;;
60919;SDS011;59039;52.108;19.942;2023-11-21T10:08:46;25.90;;;12.40;;
60919;SDS011;59039;52.108;19.942;2023-11-21T10:11:12;27.80;;;13.50;;
60919;SDS011;59039;52.108;19.942;2023-11-21T10:13:40;30.80;;;13.90;;
60919;SDS011;59039;52.108;19.942;2023-11-21T10:16:05;31.30;;;14.30;;
60919;SDS011;59039;52.108;19.942;2023-11-21T10:18:34;37.30;;;17.90;;
60919;SDS011;59039;52.108;19.942;2023-11-21T10:21:00;35.90;;;16.50;;
60919;SDS011;59039;52.108;19.942;2023-11-21T10:23:26;40.10;;;18.40;;
60919;SDS011;59039;52.108;19.942;2023-11-21T10:25:52;42.60;;;20.80;;
60919;SDS011;59039;52.108;19.942;2023-11-21T10:28:18;37.90;;;18.00;;
60919;SDS011;59039;52.108;19.942;2023-11-21T10:30:43;32.00;;;16.00;;
60919;SDS011;59039;52.108;19.942;2023-11-21T10:33:09;38.70;;;16.50;;
60919;SDS011;59039;52.108;19.942;2023-11-21T10:38:08;36.20;;;14.80;;
60919;SDS011;59039;52.108;19.942;2023-11-21T10:40:34;34.10;;;15.50;;
60919;SDS011;59039;52.108;19.942;2023-11-21T10:43:08;32.00;;;15.60;;
60919;SDS011;59039;52.108;19.942;2023-11-21T10:45:34;38.40;;;17.20;;
60919;SDS011;59039;52.108;19.942;2023-11-21T10:48:00;34.50;;;15.20;;
60919;SDS011;59039;52.108;19.942;2023-11-21T10:50:26;37.10;;;15.80;;
60919;SDS011;59039;52.108;19.942;2023-11-21T10:52:51;48.00;;;17.50;;
60919;SDS011;59039;52.108;19.942;2023-11-21T10:55:19;45.50;;;20.30;;
60919;SDS011;59039;52.108;19.942;2023-11-21T10:57:46;43.20;;;18.70;;
60919;SDS011;59039;52.108;19.942;2023-11-21T11:00:14;49.30;;;19.90;;
60919;SDS011;59039;52.108;19.942;2023-11-21T11:02:41;40.50;;;16.60;;
60919;SDS011;59039;52.108;19.942;2023-11-21T11:05:07;36.40;;;16.50;;
60919;SDS011;59039;52.108;19.942;2023-11-21T11:07:32;36.90;;;17.70;;
60919;SDS011;59039;52.108;19.942;2023-11-21T11:10:00;39.40;;;19.20;;
60919;SDS011;59039;52.108;19.942;2023-11-21T11:12:26;43.90;;;18.60;;
60919;SDS011;59039;52.108;19.942;2023-11-21T11:14:51;34.90;;;16.20;;
60919;SDS011;59039;52.108;19.942;2023-11-21T11:17:16;34.80;;;15.60;;
60919;SDS011;59039;52.108;19.942;2023-11-21T11:19:43;35.30;;;16.10;;
60919;SDS011;59039;52.108;19.942;2023-11-21T11:22:29;38.30;;;17.50;;
60919;SDS011;59039;52.108;19.942;2023-11-21T11:32:53;43.10;;;18.40;;
60919;SDS011;59039;52.108;19.942;2023-11-21T11:35:24;33.30;;;13.60;;
60919;SDS011;59039;52.108;19.942;2023-11-21T11:37:58;43.70;;;17.40;;
60919;SDS011;59039;52.108;19.942;2023-11-21T11:40:25;47.60;;;22.20;;
60919;SDS011;59039;52.108;19.942;2023-11-21T11:43:03;52.20;;;24.80;;
60919;SDS011;59039;52.108;19.942;2023-11-21T11:45:34;45.30;;;24.30;;
60919;SDS011;59039;52.108;19.942;2023-11-21T11:48:00;45.60;;;21.50;;
60919;SDS011;59039;52.108;19.942;2023-11-21T11:50:26;41.40;;;20.00;;
60919;SDS011;59039;52.108;19.942;2023-11-21T11:52:55;41.60;;;17.50;;
60919;SDS011;59039;52.108;19.942;2023-11-21T11:55:36;43.20;;;19.30;;
60919;SDS011;59039;52.108;19.942;2023-11-21T11:58:04;41.20;;;17.30;;
60919;SDS011;59039;52.108;19.942;2023-11-21T12:00:35;36.70;;;15.50;;
60919;SDS011;59039;52.108;19.942;2023-11-21T12:03:01;23.00;;;11.80;;
60919;SDS011;59039;52.108;19.942;2023-11-21T12:05:27;38.30;;;18.70;;
60919;SDS011;59039;52.108;19.942;2023-11-21T12:07:56;38.10;;;17.40;;
60919;SDS011;59039;52.108;19.942;2023-11-21T12:10:29;45.00;;;22.40;;
60919;SDS011;59039;52.108;19.942;2023-11-21T12:12:57;36.80;;;17.10;;
60919;SDS011;59039;52.108;19.942;2023-11-21T12:15:24;35.30;;;17.00;;
60919;SDS011;59039;52.108;19.942;2023-11-21T12:17:50;36.00;;;16.70;;
60919;SDS011;59039;52.108;19.942;2023-11-21T12:20:20;44.40;;;23.30;;
60919;SDS011;59039;52.108;19.942;2023-11-21T12:22:51;50.90;;;21.20;;
60919;SDS011;59039;52.108;19.942;2023-11-21T12:25:18;38.80;;;18.40;;
60919;SDS011;59039;52.108;19.942;2023-11-21T12:27:49;35.70;;;16.10;;
60919;SDS011;59039;52.108;19.942;2023-11-21T12:30:16;41.00;;;17.90;;
60919;SDS011;59039;52.108;19.942;2023-11-21T12:32:43;38.10;;;16.70;;
60919;SDS011;59039;52.108;19.942;2023-11-21T12:35:09;52.30;;;23.30;;
60919;SDS011;59039;52.108;19.942;2023-11-21T12:37:35;48.10;;;21.30;;
60919;SDS011;59039;52.108;19.942;2023-11-21T12:40:01;40.10;;;18.00;;
60919;SDS011;59039;52.108;19.942;2023-11-21T12:42:27;55.20;;;24.20;;
60919;SDS011;59039;52.108;19.942;2023-11-21T12:50:24;52.20;;;21.60;;
60919;SDS011;59039;52.108;19.942;2023-11-21T12:52:53;91.10;;;32.00;;
60919;SDS011;59039;52.108;19.942;2023-11-21T12:55:18;76.20;;;29.60;;
60919;SDS011;59039;52.108;19.942;2023-11-21T12:57:45;95.60;;;36.40;;
60919;SDS011;59039;52.108;19.942;2023-11-21T13:00:11;104.60;;;34.10;;
60919;SDS011;59039;52.108;19.942;2023-11-21T13:02:38;63.60;;;23.50;;
60919;SDS011;59039;52.108;19.942;2023-11-21T13:05:03;98.40;;;28.60;;
60919;SDS011;59039;52.108;19.942;2023-11-21T13:07:29;47.50;;;19.40;;
60919;SDS011;59039;52.108;19.942;2023-11-21T13:09:54;65.30;;;25.40;;
60919;SDS011;59039;52.108;19.942;2023-11-21T13:12:23;52.00;;;21.50;;
60919;SDS011;59039;52.108;19.942;2023-11-21T13:14:49;40.40;;;15.90;;
60919;SDS011;59039;52.108;19.942;2023-11-21T13:17:14;41.60;;;19.20;;
60919;SDS011;59039;52.108;19.942;2023-11-21T13:19:39;41.40;;;19.10;;
60919;SDS011;59039;52.108;19.942;2023-11-21T13:22:04;44.70;;;18.90;;
60919;SDS011;59039;52.108;19.942;2023-11-21T13:24:30;38.70;;;18.10;;
60919;SDS011;59039;52.108;19.942;2023-11-21T13:26:55;46.10;;;19.20;;
60919;SDS011;59039;52.108;19.942;2023-11-21T13:29:20;44.70;;;18.10;;
60919;SDS011;59039;52.108;19.942;2023-11-21T13:31:45;44.60;;;19.30;;
60919;SDS011;59039;52.108;19.942;2023-11-21T13:34:10;51.70;;;22.90;;
60919;SDS011;59039;52.108;19.942;2023-11-21T13:36:36;47.20;;;23.80;;
60919;SDS011;59039;52.108;19.942;2023-11-21T13:39:01;41.50;;;19.30;;
60919;SDS011;59039;52.108;19.942;2023-11-21T13:41:26;45.00;;;18.20;;
60919;SDS011;59039;52.108;19.942;2023-11-21T13:43:52;33.70;;;16.20;;
60919;SDS011;59039;52.108;19.942;2023-11-21T13:46:17;34.40;;;17.00;;
60919;SDS011;59039;52.108;19.942;2023-11-21T13:48:43;46.50;;;18.60;;
60919;SDS011;59039;52.108;19.942;2023-11-21T13:51:11;40.20;;;18.50;;
60919;SDS011;59039;52.108;19.942;2023-11-21T13:53:36;44.10;;;17.40;;
60919;SDS011;59039;52.108;19.942;2023-11-21T13:56:01;39.20;;;19.00;;
60919;SDS011;59039;52.108;19.942;2023-11-21T13:58:26;41.60;;;18.60;;
60919;SDS011;59039;52.108;19.942;2023-11-21T14:00:52;44.90;;;18.50;;
60919;SDS011;59039;52.108;19.942;2023-11-21T14:03:17;41.10;;;17.50;;
60919;SDS011;59039;52.108;19.942;2023-11-21T14:05:43;52.00;;;20.80;;
60919;SDS011;59039;52.108;19.942;2023-11-21T14:08:09;36.20;;;17.80;;
60919;SDS011;59039;52.108;19.942;2023-11-21T14:10:34;39.90;;;17.30;;
60919;SDS011;59039;52.108;19.942;2023-11-21T14:12:59;37.30;;;17.30;;
60919;SDS011;59039;52.108;19.942;2023-11-21T14:15:24;40.20;;;18.00;;